createdAt,value
2022-12-23T00:00:43.099Z,42.30
2022-12-23T00:04:14.092Z,42.03
2022-12-23T00:07:38.871Z,40.28
2022-12-23T00:11:02.834Z,39.00
2022-12-23T00:14:38.796Z,40.38
2022-12-23T00:17:46.324Z,40.87
2022-12-23T00:21:08.913Z,41.60
2022-12-23T00:24:29.833Z,40.70
2022-12-23T00:28:01.559Z,42.60
2022-12-23T00:31:15.116Z,42.30
2022-12-23T00:34:18.156Z,43.10
2022-12-23T00:37:22.307Z,37.20
2022-12-23T00:41:05.117Z,41.28
2022-12-23T00:44:41.013Z,39.65
2022-12-23T00:48:17.925Z,39.50
2022-12-23T00:51:29.297Z,38.80
2022-12-23T00:54:38.857Z,38.93
2022-12-23T00:58:02.898Z,39.45
2022-12-23T01:01:51.008Z,37.55
2022-12-23T01:05:19.762Z,35.70
2022-12-23T01:08:28.006Z,37.50
2022-12-23T01:11:44.079Z,39.37
2022-12-23T01:15:03.951Z,36.97
2022-12-23T01:18:24.025Z,38.40
2022-12-23T01:21:41.935Z,37.40
2022-12-23T01:25:13.009Z,37.50
2022-12-23T01:28:16.803Z,34.97
2022-12-23T01:31:25.773Z,35.60
2022-12-23T01:34:37.137Z,34.35
2022-12-23T01:37:47.598Z,36.45
2022-12-23T01:41:10.926Z,34.50
2022-12-23T01:45:01.004Z,34.97
2022-12-23T01:48:05.948Z,34.67
2022-12-23T01:51:23.582Z,35.35
2022-12-23T01:54:27.226Z,33.15
2022-12-23T01:57:46.979Z,33.97
2022-12-23T02:01:29.649Z,32.03
2022-12-23T02:04:45.951Z,32.00
2022-12-23T02:08:15.427Z,32.22
2022-12-23T02:11:49.842Z,33.22
2022-12-23T02:15:35.348Z,32.40
2022-12-23T02:19:16.872Z,33.83
2022-12-23T02:22:45.404Z,32.60
2022-12-23T02:26:05.332Z,34.00
2022-12-23T02:29:40.314Z,34.35
2022-12-23T02:33:34.795Z,35.23
2022-12-23T02:36:54.466Z,34.27
2022-12-23T02:40:36.651Z,34.78
2022-12-23T02:43:51.909Z,35.30
2022-12-23T02:47:00.783Z,38.08
2022-12-23T02:50:23.565Z,36.97
2022-12-23T02:53:47.470Z,38.60
2022-12-23T02:57:11.512Z,37.35
2022-12-23T03:00:33.523Z,39.00
2022-12-23T03:03:54.595Z,37.95
2022-12-23T03:07:18.347Z,37.07
2022-12-23T03:10:53.692Z,37.03
2022-12-23T03:14:40.279Z,37.80
2022-12-23T03:18:15.094Z,38.83
2022-12-23T03:22:00.562Z,37.55
2022-12-23T03:25:47.560Z,37.70
2022-12-23T03:29:53.544Z,39.53
2022-12-23T03:33:29.288Z,38.83
2022-12-23T03:36:50.117Z,38.83
2022-12-23T03:40:08.129Z,40.90
2022-12-23T03:43:31.258Z,43.33
2022-12-23T03:47:08.499Z,41.57
2022-12-23T03:50:20.104Z,40.20
2022-12-23T03:53:43.411Z,39.13
2022-12-23T03:57:04.313Z,39.97
2022-12-23T04:00:25.262Z,40.17
2022-12-23T04:03:50.329Z,40.13
2022-12-23T04:07:08.299Z,40.67
2022-12-23T04:10:25.610Z,41.85
2022-12-23T04:13:45.428Z,41.08
2022-12-23T04:17:08.582Z,40.60
2022-12-23T04:20:24.460Z,39.63
2022-12-23T04:23:28.106Z,40.75
2022-12-23T04:26:38.823Z,40.20
2022-12-23T04:29:45.017Z,42.50
2022-12-23T04:32:58.567Z,41.90
2022-12-23T04:36:05.904Z,41.23
2022-12-23T04:39:09.955Z,42.40
2022-12-23T04:42:25.545Z,40.63
2022-12-23T04:45:48.408Z,39.45
2022-12-23T04:49:06.037Z,36.97
2022-12-23T04:52:15.973Z,39.87
2022-12-23T04:55:41.310Z,40.70
2022-12-23T04:59:17.407Z,38.72
2022-12-23T05:02:40.604Z,39.47
2022-12-23T05:05:49.807Z,38.17
2022-12-23T05:09:05.385Z,39.27
2022-12-23T05:12:22.272Z,40.25
2022-12-23T05:15:27.436Z,35.55
2022-12-23T05:18:50.317Z,35.25
2022-12-23T05:22:13.841Z,34.10
2022-12-23T05:25:29.273Z,34.50
2022-12-23T05:28:32.598Z,33.55
2022-12-23T05:31:35.771Z,36.25
2022-12-23T05:34:51.410Z,36.60
2022-12-23T05:38:09.292Z,36.80
2022-12-23T05:41:35.307Z,34.23
2022-12-23T05:44:58.336Z,32.70
2022-12-23T05:48:19.313Z,32.17
2022-12-23T05:51:39.160Z,30.30
2022-12-23T05:54:55.283Z,28.97
2022-12-23T05:58:21.292Z,29.60
2022-12-23T06:01:46.275Z,29.67
2022-12-23T06:04:50.132Z,28.52
2022-12-23T06:07:57.304Z,30.52
2022-12-23T06:11:08.632Z,29.97
2022-12-23T06:14:17.669Z,32.17
2022-12-23T06:17:40.142Z,31.83
2022-12-23T06:21:08.687Z,31.38
2022-12-23T06:24:29.108Z,31.20
2022-12-23T06:27:52.309Z,31.53
2022-12-23T06:31:14.285Z,31.03
2022-12-23T06:34:31.764Z,30.50
2022-12-23T06:37:55.042Z,30.98
2022-12-23T06:41:27.755Z,31.23
2022-12-23T06:44:37.795Z,31.93
2022-12-23T06:48:01.083Z,29.57
2022-12-23T06:51:35.022Z,28.38
2022-12-23T06:54:48.937Z,28.77
2022-12-23T06:57:51.964Z,28.45
2022-12-23T07:00:56.765Z,27.93
2022-12-23T07:04:03.824Z,27.93
2022-12-23T07:07:10.510Z,26.60
2022-12-23T07:10:14.881Z,26.50
2022-12-23T07:13:31.184Z,26.77
2022-12-23T07:16:54.835Z,27.23
2022-12-23T07:20:13.557Z,27.50
2022-12-23T07:23:30.928Z,28.50
2022-12-23T07:27:00.966Z,26.80
2022-12-23T07:30:23.906Z,26.45
2022-12-23T07:33:46.978Z,24.63
2022-12-23T07:36:50.132Z,24.00
2022-12-23T07:39:54.693Z,23.75
2022-12-23T07:43:06.469Z,23.80
2022-12-23T07:46:25.247Z,23.10
2022-12-23T07:49:44.510Z,22.67
2022-12-23T07:53:11.539Z,23.07
2022-12-23T07:56:31.483Z,23.85
2022-12-23T07:59:47.267Z,22.73
2022-12-23T08:03:09.937Z,22.92
2022-12-23T08:06:41.485Z,22.20
2022-12-23T08:09:58.099Z,23.60
2022-12-23T08:13:18.840Z,24.90
2022-12-23T08:16:45.426Z,24.73
2022-12-23T08:20:07.786Z,24.25
2022-12-23T08:23:34.500Z,23.77
2022-12-23T08:26:44.388Z,23.80
2022-12-23T08:29:47.601Z,24.33
2022-12-23T08:32:51.548Z,24.95
2022-12-23T08:35:58.376Z,26.30
2022-12-23T08:39:05.847Z,24.50
2022-12-23T08:42:13.333Z,23.43
2022-12-23T08:45:27.652Z,25.08
2022-12-23T08:48:40.510Z,25.35
2022-12-23T08:51:59.819Z,23.20
2022-12-23T08:55:03.478Z,25.50
2022-12-23T08:58:10.121Z,25.33
2022-12-23T09:01:19.412Z,27.42
2022-12-23T09:04:32.877Z,26.20
2022-12-23T09:07:40.049Z,27.65
2022-12-23T09:10:45.077Z,24.07
2022-12-23T09:14:08.763Z,26.10
2022-12-23T09:17:29.551Z,25.45
2022-12-23T09:20:53.671Z,23.85
2022-12-23T09:24:16.434Z,25.00
2022-12-23T09:27:20.049Z,25.40
2022-12-23T09:30:24.960Z,25.63
2022-12-23T09:33:34.206Z,25.65
2022-12-23T09:36:55.645Z,25.60
2022-12-23T09:40:13.960Z,25.73
2022-12-23T09:43:58.464Z,26.37
2022-12-23T09:47:08.026Z,26.80
2022-12-23T09:50:23.767Z,27.80
2022-12-23T09:53:50.822Z,28.38
2022-12-23T09:58:01.292Z,27.25
2022-12-23T10:02:05.843Z,26.63
2022-12-23T10:05:48.423Z,25.93
2022-12-23T10:09:05.351Z,24.15
2022-12-23T10:12:29.586Z,24.80
2022-12-23T10:15:58.009Z,25.45
2022-12-23T10:19:48.574Z,24.27
2022-12-23T10:23:16.830Z,25.43
2022-12-23T10:26:38.683Z,26.02
2022-12-23T10:30:19.879Z,24.48
2022-12-23T10:34:05.950Z,24.48
2022-12-23T10:37:40.085Z,25.20
2022-12-23T10:41:07.068Z,23.67
2022-12-23T10:44:41.471Z,23.90
2022-12-23T10:48:05.107Z,25.95
2022-12-23T10:51:24.462Z,26.25
2022-12-23T10:54:37.012Z,25.27
2022-12-23T10:57:53.531Z,27.60
2022-12-23T11:01:22.057Z,26.55
2022-12-23T11:04:38.368Z,26.85
2022-12-23T11:07:48.192Z,28.38
2022-12-23T11:11:13.333Z,26.30
2022-12-23T11:14:51.403Z,27.23
2022-12-23T11:18:17.683Z,27.27
2022-12-23T11:21:30.334Z,28.80
2022-12-23T11:24:52.154Z,29.15
2022-12-23T11:28:25.347Z,27.37
2022-12-23T11:31:40.412Z,27.83
2022-12-23T11:35:01.301Z,28.67
2022-12-23T11:38:14.121Z,29.08
2022-12-23T11:41:28.541Z,27.08
2022-12-23T11:44:49.879Z,29.80
2022-12-23T11:48:12.243Z,28.90
2022-12-23T11:51:48.278Z,29.67
2022-12-23T11:55:15.204Z,29.95
2022-12-23T11:58:26.119Z,27.63
2022-12-23T12:01:44.296Z,29.57
2022-12-23T12:05:46.448Z,28.67
2022-12-23T12:08:56.479Z,27.08
2022-12-23T12:12:13.516Z,27.52
2022-12-23T12:15:35.473Z,28.58
2022-12-23T12:18:52.097Z,27.70
2022-12-23T12:22:15.261Z,29.13
2022-12-23T12:25:49.442Z,27.92
2022-12-23T12:29:30.945Z,28.23
2022-12-23T12:32:51.842Z,28.55
2022-12-23T12:36:30.165Z,28.73
2022-12-23T12:39:56.888Z,26.80
2022-12-23T12:43:34.039Z,26.85
2022-12-23T12:46:49.787Z,28.15
2022-12-23T12:50:08.698Z,26.98
2022-12-23T12:53:28.019Z,26.17
2022-12-23T12:56:38.505Z,26.07
2022-12-23T13:00:03.601Z,26.67
2022-12-23T13:03:34.745Z,28.85
2022-12-23T13:07:04.989Z,26.33
2022-12-23T13:10:34.089Z,27.60
2022-12-23T13:13:44.142Z,28.50
2022-12-23T13:17:14.963Z,26.75
2022-12-23T13:21:03.363Z,27.73
2022-12-23T13:24:44.036Z,28.63
2022-12-23T13:28:37.109Z,27.63
2022-12-23T13:32:55.188Z,28.17
2022-12-23T13:36:14.339Z,28.45
2022-12-23T13:39:27.354Z,31.52
2022-12-23T13:42:43.977Z,27.92
2022-12-23T13:45:55.141Z,29.23
2022-12-23T13:49:26.242Z,27.80
2022-12-23T13:52:41.646Z,28.02
2022-12-23T13:56:09.185Z,27.05
2022-12-23T13:59:17.043Z,28.02
2022-12-23T14:02:54.241Z,26.97
2022-12-23T14:05:57.231Z,29.47
2022-12-23T14:09:00.181Z,25.92
2022-12-23T14:12:35.886Z,28.52
2022-12-23T14:16:28.862Z,27.10
2022-12-23T14:19:47.474Z,28.73
2022-12-23T14:23:19.549Z,28.13
2022-12-23T14:26:49.034Z,27.17
2022-12-23T14:30:07.466Z,26.95
2022-12-23T14:33:18.498Z,28.73
2022-12-23T14:36:25.019Z,31.13
2022-12-23T14:39:34.418Z,26.53
2022-12-23T14:42:55.808Z,28.08
2022-12-23T14:46:07.357Z,28.75
2022-12-23T14:49:40.094Z,27.30
2022-12-23T14:53:03.916Z,27.83
2022-12-23T14:56:19.926Z,27.33
2022-12-23T14:59:52.179Z,28.42
2022-12-23T15:03:06.024Z,26.80
2022-12-23T15:06:15.261Z,27.95
2022-12-23T15:09:37.470Z,26.53
2022-12-23T15:12:46.741Z,25.90
2022-12-23T15:16:01.759Z,27.48
2022-12-23T15:19:25.766Z,26.83
2022-12-23T15:22:41.986Z,26.00
2022-12-23T15:25:57.669Z,25.97
2022-12-23T15:29:25.581Z,27.80
2022-12-23T15:32:48.637Z,26.98
2022-12-23T15:36:13.678Z,27.27
2022-12-23T15:39:36.910Z,27.38
2022-12-23T15:42:56.568Z,26.67
2022-12-23T15:46:29.252Z,27.37
2022-12-23T15:49:40.716Z,28.23
2022-12-23T15:52:54.631Z,26.60
2022-12-23T15:55:58.313Z,27.77
2022-12-23T15:59:34.611Z,28.73
2022-12-23T16:03:01.245Z,27.03
2022-12-23T16:06:24.436Z,27.80
2022-12-23T16:09:49.575Z,28.35
2022-12-23T16:13:17.589Z,28.17
2022-12-23T16:16:43.946Z,26.33
2022-12-23T16:20:02.596Z,28.17
2022-12-23T16:23:25.555Z,25.88
2022-12-23T16:26:48.684Z,26.75
2022-12-23T16:30:09.560Z,26.42
2022-12-23T16:33:38.816Z,27.23
2022-12-23T16:36:51.684Z,24.97
2022-12-23T16:40:09.549Z,26.40
2022-12-23T16:43:32.625Z,25.50
2022-12-23T16:46:56.612Z,25.30
2022-12-23T16:50:18.718Z,26.20
2022-12-23T16:53:38.502Z,26.23
2022-12-23T16:56:58.439Z,26.48
2022-12-23T17:00:19.616Z,26.65
2022-12-23T17:03:39.494Z,26.42
2022-12-23T17:06:46.854Z,27.53
2022-12-23T17:09:50.681Z,27.63
2022-12-23T17:13:12.227Z,26.80
2022-12-23T17:16:35.061Z,28.00
2022-12-23T17:19:55.150Z,28.23
2022-12-23T17:23:19.314Z,26.20
2022-12-23T17:26:40.226Z,27.43
2022-12-23T17:30:02.351Z,28.20
2022-12-23T17:33:26.197Z,26.45
2022-12-23T17:36:49.235Z,27.85
2022-12-23T17:39:59.843Z,26.70
2022-12-23T17:43:27.396Z,26.07
2022-12-23T17:46:41.144Z,28.00
2022-12-23T17:49:57.474Z,27.80
2022-12-23T17:53:01.562Z,26.35
2022-12-23T17:56:16.894Z,28.97
2022-12-23T17:59:32.278Z,27.57
2022-12-23T18:02:39.274Z,28.42
2022-12-23T18:05:45.862Z,26.90
2022-12-23T18:08:50.126Z,28.08
2022-12-23T18:12:13.327Z,26.17
2022-12-23T18:15:34.296Z,26.17
2022-12-23T18:18:45.898Z,26.80
2022-12-23T18:21:51.356Z,27.15
2022-12-23T18:24:59.108Z,26.02
2022-12-23T18:28:11.049Z,26.80
2022-12-23T18:31:29.604Z,26.70
2022-12-23T18:34:45.307Z,27.33
2022-12-23T18:38:08.174Z,26.38
2022-12-23T18:41:30.733Z,28.00
2022-12-23T18:44:34.657Z,28.23
2022-12-23T18:47:40.837Z,26.43
2022-12-23T18:50:57.152Z,28.52
2022-12-23T18:54:16.356Z,28.20
2022-12-23T18:57:19.545Z,26.85
2022-12-23T19:00:27.066Z,28.60
2022-12-23T19:03:40.808Z,26.47
2022-12-23T19:07:01.727Z,26.80
2022-12-23T19:10:26.819Z,27.05
2022-12-23T19:13:36.669Z,27.42
2022-12-23T19:16:59.103Z,26.90
2022-12-23T19:20:27.180Z,28.00
2022-12-23T19:23:44.064Z,28.40
2022-12-23T19:27:01.973Z,27.73
2022-12-23T19:30:07.600Z,27.30
2022-12-23T19:33:13.347Z,28.67
2022-12-23T19:36:25.228Z,28.83
2022-12-23T19:39:31.593Z,27.90
2022-12-23T19:42:38.118Z,26.80
2022-12-23T19:46:08.086Z,28.80
2022-12-23T19:49:19.933Z,27.37
2022-12-23T19:52:40.937Z,27.63
2022-12-23T19:56:06.019Z,28.75
2022-12-23T19:59:15.764Z,30.08
2022-12-23T20:02:39.106Z,29.58
2022-12-23T20:05:59.051Z,28.70
2022-12-23T20:09:19.962Z,29.90
2022-12-23T20:12:40.047Z,29.02
2022-12-23T20:16:04.012Z,30.67
2022-12-23T20:19:34.055Z,30.20
2022-12-23T20:22:55.894Z,30.47
2022-12-23T20:26:05.831Z,31.33
2022-12-23T20:29:15.591Z,30.92
2022-12-23T20:32:32.086Z,29.15
2022-12-23T20:35:36.556Z,29.48
2022-12-23T20:38:59.869Z,30.03
2022-12-23T20:42:23.484Z,28.00
2022-12-23T20:45:46.001Z,30.98
2022-12-23T20:48:55.489Z,30.25
2022-12-23T20:51:58.373Z,28.17
2022-12-23T20:55:05.133Z,29.93
2022-12-23T20:58:45.855Z,27.93
2022-12-23T21:01:59.100Z,28.00
2022-12-23T21:05:02.410Z,30.20
2022-12-23T21:08:22.029Z,29.35
2022-12-23T21:11:45.814Z,29.90
2022-12-23T21:15:05.918Z,29.60
2022-12-23T21:18:29.787Z,30.95
2022-12-23T21:21:49.825Z,29.30
2022-12-23T21:25:09.784Z,32.83
2022-12-23T21:28:29.754Z,33.87
2022-12-23T21:31:47.969Z,33.57
2022-12-23T21:34:54.906Z,31.85
2022-12-23T21:38:05.063Z,31.67
2022-12-23T21:41:23.484Z,29.63
2022-12-23T21:44:39.833Z,29.70
2022-12-23T21:47:53.319Z,28.83
2022-12-23T21:51:08.140Z,30.13
2022-12-23T21:54:18.285Z,27.60
2022-12-23T21:57:28.158Z,28.40
2022-12-23T22:00:36.277Z,28.03
2022-12-23T22:03:39.801Z,27.77
2022-12-23T22:06:47.028Z,27.52
2022-12-23T22:10:02.740Z,25.80
2022-12-23T22:13:24.626Z,27.52
2022-12-23T22:16:35.534Z,29.07
2022-12-23T22:19:58.680Z,28.30
2022-12-23T22:23:30.592Z,30.58
2022-12-23T22:26:54.569Z,29.65
2022-12-23T22:30:10.789Z,27.58
2022-12-23T22:33:38.541Z,27.53
2022-12-23T22:37:01.558Z,27.23
2022-12-23T22:40:23.532Z,27.88
2022-12-23T22:43:26.808Z,29.67
2022-12-23T22:46:31.249Z,29.60
2022-12-23T22:49:41.284Z,28.80
2022-12-23T22:53:04.620Z,29.93
2022-12-23T22:56:16.131Z,28.58
2022-12-23T22:59:31.644Z,28.23
2022-12-23T23:02:38.069Z,29.40
2022-12-23T23:05:43.140Z,26.80
2022-12-23T23:09:04.654Z,29.10
2022-12-23T23:12:24.628Z,29.30
2022-12-23T23:15:47.628Z,28.42
2022-12-23T23:19:08.685Z,28.13
2022-12-23T23:22:30.572Z,28.13
2022-12-23T23:25:50.547Z,30.47
2022-12-23T23:29:10.626Z,30.33
2022-12-23T23:32:30.569Z,31.42
2022-12-23T23:35:50.415Z,30.17
2022-12-23T23:39:10.511Z,28.63
2022-12-23T23:42:18.028Z,26.20
2022-12-23T23:45:27.556Z,27.55
2022-12-23T23:48:42.404Z,26.37
2022-12-23T23:52:05.327Z,27.10
2022-12-23T23:55:27.295Z,26.55
2022-12-23T23:58:30.320Z,26.52
